Time;durP1;ratioP1;P1;durP2;ratioP2;P2;SDS_P1;SDS_P2;PMS_P1;PMS_P2;Temp;Humidity;BMP_temperature;BMP_pressure;BME280_temperature;BME280_humidity;BME280_pressure;Samples;Min_cycle;Max_cycle;Signal;HPM_P1;HPM_P2
2024/03/27 00:00:05;;;;;;;22.80;12.40;;;;;;;7.22;81.49;99333.94;104836;1267;97957;-76
2024/03/27 00:03:11;;;;;;;17.60;11.90;;;;;;;7.20;81.36;99330.73;105063;1261;97987;-78
2024/03/27 00:05:56;;;;;;;18.20;12.10;;;;;;;7.19;81.37;99332.85;105271;1261;97987;-78
2024/03/27 00:08:42;;;;;;;21.60;12.50;;;;;;;7.18;81.49;99329.32;105212;1263;101514;-78
2024/03/27 00:11:28;;;;;;;22.80;13.40;;;;;;;7.16;81.48;99325.14;105191;1265;100311;-77
2024/03/27 00:14:13;;;;;;;19.90;13.10;;;;;;;7.14;81.26;99323.90;105159;1265;98312;-79
2024/03/27 00:16:58;;;;;;;21.90;12.20;;;;;;;7.14;81.37;99320.45;105492;1262;98786;-78
2024/03/27 00:19:44;;;;;;;19.00;12.30;;;;;;;7.12;81.37;99315.85;105646;1263;97777;-79
2024/03/27 00:22:29;;;;;;;18.60;12.20;;;;;;;7.12;81.29;99311.96;105708;1265;101341;-79
2024/03/27 00:25:15;;;;;;;19.80;11.90;;;;;;;7.12;81.27;99308.20;105553;1265;99198;-78
2024/03/27 00:28:00;;;;;;;21.40;12.00;;;;;;;7.11;81.23;99305.98;105650;1265;97979;-78
2024/03/27 00:30:46;;;;;;;19.90;11.00;;;;;;;7.11;81.17;99302.77;105608;1263;97996;-78
2024/03/27 00:33:31;;;;;;;18.80;12.20;;;;;;;7.11;81.06;99297.82;105545;1264;98404;-78
2024/03/27 00:36:17;;;;;;;18.70;12.30;;;;;;;7.11;81.11;99295.52;105576;1265;101358;-78
2024/03/27 00:39:03;;;;;;;17.20;10.80;;;;;;;7.11;81.28;99286.56;105559;1262;99176;-79
2024/03/27 00:41:49;;;;;;;19.90;11.20;;;;;;;7.10;81.45;99281.48;105177;1261;99442;-76
2024/03/27 00:44:35;;;;;;;22.20;12.30;;;;;;;7.10;81.50;99280.29;104961;1263;98044;-76
2024/03/27 00:47:20;;;;;;;20.30;11.80;;;;;;;7.07;81.36;99272.45;105220;1265;99698;-77
2024/03/27 00:50:06;;;;;;;19.90;11.50;;;;;;;7.04;81.30;99267.18;105083;1263;102374;-78
2024/03/27 00:52:53;;;;;;;16.70;10.90;;;;;;;7.02;81.36;99260.50;104993;1265;99107;-76
2024/03/27 00:55:38;;;;;;;18.90;10.70;;;;;;;6.98;81.70;99260.28;105399;1264;98080;-77
2024/03/27 00:58:25;;;;;;;17.90;10.80;;;;;;;6.93;81.68;99262.37;105190;1261;97883;-78
2024/03/27 01:01:10;;;;;;;19.40;11.50;;;;;;;6.90;81.82;99261.57;105201;1262;98844;-78
2024/03/27 01:03:56;;;;;;;25.40;12.40;;;;;;;6.88;81.82;99256.64;105218;1262;102837;-79
2024/03/27 01:06:41;;;;;;;21.20;11.30;;;;;;;6.86;81.81;99253.04;105159;1265;99196;-77
2024/03/27 01:09:27;;;;;;;20.10;10.50;;;;;;;6.83;81.84;99252.70;105146;1260;98665;-78
2024/03/27 01:12:12;;;;;;;22.40;11.90;;;;;;;6.80;82.00;99256.44;105199;1263;97964;-79
2024/03/27 01:14:58;;;;;;;15.50;10.00;;;;;;;6.79;82.14;99254.75;105575;1262;98394;-77
2024/03/27 01:17:46;;;;;;;15.00;9.20;;;;;;;6.79;82.03;99250.95;105623;1267;102232;-78
2024/03/27 01:20:32;;;;;;;17.90;10.40;;;;;;;6.77;82.06;99246.72;105624;1265;99855;-79
2024/03/27 01:23:17;;;;;;;15.90;10.10;;;;;;;6.77;82.31;99246.34;105703;1264;98463;-79
2024/03/27 01:26:04;;;;;;;12.80;9.30;;;;;;;6.78;82.33;99239.83;105623;1261;99392;-79
2024/03/27 01:28:49;;;;;;;17.20;9.80;;;;;;;6.80;82.36;99235.30;105750;1264;97886;-80
2024/03/27 01:31:35;;;;;;;17.30;9.50;;;;;;;6.82;82.40;99232.83;105542;1262;101483;-79
2024/03/27 01:34:20;;;;;;;18.30;8.90;;;;;;;6.83;82.43;99234.39;105149;1259;100540;-77
2024/03/27 01:37:05;;;;;;;17.90;10.60;;;;;;;6.86;82.32;99230.63;105241;1264;98839;-77
2024/03/27 01:39:51;;;;;;;17.80;10.50;;;;;;;6.88;82.67;99222.79;105057;1263;97983;-77
2024/03/27 01:42:36;;;;;;;20.00;11.20;;;;;;;6.89;82.60;99225.16;105219;1265;98473;-77
2024/03/27 01:45:22;;;;;;;16.50;9.80;;;;;;;6.89;82.70;99232.70;105323;1265;101291;-78
2024/03/27 01:48:08;;;;;;;16.50;9.60;;;;;;;6.91;82.86;99240.66;105326;1265;99984;-78
2024/03/27 01:50:54;;;;;;;15.60;8.90;;;;;;;6.92;82.93;99232.19;105217;1262;98941;-77
2024/03/27 01:53:40;;;;;;;17.10;9.90;;;;;;;6.94;82.97;99218.02;105100;1268;97974;-78
2024/03/27 01:56:26;;;;;;;18.50;9.90;;;;;;;6.95;83.03;99214.35;105254;1265;98752;-78
2024/03/27 01:59:12;;;;;;;17.20;10.30;;;;;;;6.95;82.98;99207.83;105187;1262;101347;-78
2024/03/27 02:02:00;;;;;;;16.40;9.90;;;;;;;6.95;82.96;99209.23;105017;1266;99264;-78
2024/03/27 02:04:46;;;;;;;14.80;9.10;;;;;;;6.95;83.06;99211.28;105453;1265;98942;-78
2024/03/27 02:07:32;;;;;;;13.20;8.20;;;;;;;6.96;83.02;99208.38;105537;1260;97989;-77
2024/03/27 02:10:18;;;;;;;13.00;8.30;;;;;;;6.96;83.16;99207.27;105520;1265;97957;-78
2024/03/27 02:13:03;;;;;;;13.50;8.00;;;;;;;6.97;82.99;99207.08;105150;1263;102766;-79
2024/03/27 02:15:59;;;;;;;12.60;9.10;;;;;;;6.98;82.99;99213.52;105368;1265;99204;-79
2024/03/27 02:18:44;;;;;;;13.00;8.50;;;;;;;6.98;82.73;99209.25;105538;1265;97768;-80
2024/03/27 02:21:29;;;;;;;12.60;8.10;;;;;;;6.99;82.94;99210.47;105581;1262;97948;-79
2024/03/27 02:24:29;;;;;;;17.80;8.30;;;;;;;7.01;82.99;99211.51;105419;1264;98513;-79
2024/03/27 02:27:15;;;;;;;10.60;8.00;;;;;;;7.01;83.05;99204.13;105033;1263;102606;-78
2024/03/27 02:30:00;;;;;;;14.70;9.20;;;;;;;7.03;83.18;99197.14;105083;1265;99117;-78
2024/03/27 02:32:45;;;;;;;14.30;8.00;;;;;;;7.04;83.08;99198.29;105423;1265;98422;-77
2024/03/27 02:35:31;;;;;;;15.70;9.00;;;;;;;7.05;83.18;99191.34;105215;1263;98135;-78
2024/03/27 02:38:17;;;;;;;14.00;9.00;;;;;;;7.06;83.12;99189.01;105058;1265;97996;-77
2024/03/27 02:41:02;;;;;;;12.70;8.20;;;;;;;7.07;83.25;99191.92;105103;1265;101355;-75
2024/03/27 02:43:48;;;;;;;17.10;8.40;;;;;;;7.07;83.05;99187.78;105083;1260;100585;-78
2024/03/27 02:46:33;;;;;;;15.00;9.80;;;;;;;7.08;83.14;99185.13;105181;1263;98084;-79
2024/03/27 02:49:19;;;;;;;14.70;8.00;;;;;;;7.10;83.31;99180.33;105204;1263;97789;-77
2024/03/27 02:52:04;;;;;;;13.00;8.80;;;;;;;7.10;83.31;99176.45;105244;1262;99662;-78
2024/03/27 02:54:50;;;;;;;12.40;8.00;;;;;;;7.09;83.46;99177.22;105188;1265;101356;-77
2024/03/27 02:57:36;;;;;;;13.80;8.50;;;;;;;7.09;83.30;99172.75;105331;1265;99147;-78
2024/03/27 03:00:21;;;;;;;12.60;7.50;;;;;;;7.10;83.50;99167.52;105149;1274;98214;-78
2024/03/27 03:03:07;;;;;;;12.70;8.30;;;;;;;7.11;83.42;99162.93;105085;1265;98667;-78
2024/03/27 03:05:52;;;;;;;14.10;8.70;;;;;;;7.12;83.63;99160.23;105215;1265;97964;-77
2024/03/27 03:08:38;;;;;;;13.40;8.10;;;;;;;7.12;83.75;99151.88;105236;1260;111418;-77
2024/03/27 03:11:23;;;;;;;13.10;8.40;;;;;;;7.11;83.67;99149.08;105191;1265;99751;-78
2024/03/27 03:14:08;;;;;;;11.80;8.20;;;;;;;7.09;83.70;99140.97;105230;1266;98526;-78
2024/03/27 03:16:54;;;;;;;13.10;8.30;;;;;;;7.10;83.66;99135.61;105329;1265;97904;-76
2024/03/27 03:19:40;;;;;;;13.70;8.10;;;;;;;7.08;83.74;99135.30;105420;1265;98524;-78
2024/03/27 03:22:25;;;;;;;12.70;7.60;;;;;;;7.09;83.97;99129.55;105865;1264;102632;-78
2024/03/27 03:25:11;;;;;;;12.10;8.50;;;;;;;7.10;83.74;99123.69;105402;1261;100863;-77
2024/03/27 03:27:56;;;;;;;12.40;7.50;;;;;;;7.11;83.73;99118.98;105294;1265;97984;-78
2024/03/27 03:30:42;;;;;;;16.10;7.70;;;;;;;7.10;83.82;99115.90;105364;1265;98019;-78
2024/03/27 03:33:27;;;;;;;11.10;7.50;;;;;;;7.09;83.83;99113.56;105195;1263;98518;-78
2024/03/27 03:36:13;;;;;;;12.60;7.50;;;;;;;7.08;83.84;99113.03;105645;1265;101407;-79
2024/03/27 03:38:58;;;;;;;14.10;7.60;;;;;;;7.07;83.88;99109.80;105535;1266;100355;-79
2024/03/27 03:41:44;;;;;;;11.40;8.20;;;;;;;7.05;84.00;99105.33;105563;1265;97964;-80
2024/03/27 03:44:29;;;;;;;12.60;8.20;;;;;;;7.05;84.06;99100.40;105624;1265;98181;-79
2024/03/27 03:47:15;;;;;;;12.40;7.20;;;;;;;7.04;84.12;99097.62;105744;1261;97775;-79
2024/03/27 03:50:00;;;;;;;9.90;6.90;;;;;;;7.05;84.10;99101.14;106084;1263;101340;-78
2024/03/27 03:52:48;;;;;;;11.00;7.00;;;;;;;7.05;84.17;99098.92;105271;1265;101921;-78
2024/03/27 03:55:34;;;;;;;14.80;7.00;;;;;;;7.05;84.24;99092.75;105182;1266;136363;-78
2024/03/27 03:58:19;;;;;;;11.20;7.30;;;;;;;7.05;84.02;99087.79;105386;1265;97977;-80
2024/03/27 04:01:06;;;;;;;16.10;8.80;;;;;;;7.04;84.07;99085.20;105407;1263;98518;-78
2024/03/27 04:03:51;;;;;;;14.10;7.50;;;;;;;7.02;84.12;99082.30;105512;1266;102735;-79
2024/03/27 04:06:37;;;;;;;10.60;7.20;;;;;;;6.99;83.93;99088.36;105545;1259;99113;-79
2024/03/27 04:09:22;;;;;;;10.10;7.20;;;;;;;6.98;84.18;99090.89;105286;1264;98083;-77
2024/03/27 04:12:08;;;;;;;11.50;7.20;;;;;;;6.97;84.12;99087.73;105174;1265;97904;-77
2024/03/27 04:14:54;;;;;;;12.50;7.10;;;;;;;6.96;84.29;99083.30;105316;1273;98731;-78
2024/03/27 04:17:40;;;;;;;11.70;7.50;;;;;;;6.95;84.32;99079.65;105251;1264;101338;-79
2024/03/27 04:20:25;;;;;;;13.20;8.20;;;;;;;6.95;84.34;99080.23;106042;1264;99067;-78
2024/03/27 04:23:11;;;;;;;12.70;7.20;;;;;;;6.93;84.38;99079.93;105341;1261;98922;-78
2024/03/27 04:25:57;;;;;;;13.20;7.10;;;;;;;6.93;84.40;99079.48;105453;1260;97980;-78
2024/03/27 04:28:42;;;;;;;11.90;7.20;;;;;;;6.92;84.52;99076.00;105331;1264;98486;-77
2024/03/27 04:31:28;;;;;;;12.80;7.30;;;;;;;6.92;84.22;99075.87;105261;1266;101347;-78
2024/03/27 04:34:15;;;;;;;10.40;6.70;;;;;;;6.91;84.22;99075.21;105288;1273;99255;-78
2024/03/27 04:37:01;;;;;;;11.90;6.60;;;;;;;6.92;83.74;99073.38;105142;1265;99017;-79
2024/03/27 04:39:46;;;;;;;15.20;6.40;;;;;;;6.91;83.79;99070.42;105224;1266;97971;-78
2024/03/27 04:42:32;;;;;;;12.90;7.20;;;;;;;6.92;83.66;99063.96;105196;1263;98584;-78
2024/03/27 04:45:17;;;;;;;11.60;7.00;;;;;;;6.92;83.79;99068.39;105271;1266;102394;-78
2024/03/27 04:48:03;;;;;;;8.30;6.10;;;;;;;6.91;83.59;99062.44;105158;1260;99370;-78
2024/03/27 04:50:48;;;;;;;10.60;6.90;;;;;;;6.92;83.61;99057.90;105224;1261;99014;-78
2024/03/27 04:53:34;;;;;;;14.20;7.40;;;;;;;6.93;83.81;99053.77;105440;1265;99334;-77
2024/03/27 04:56:19;;;;;;;11.80;7.40;;;;;;;6.95;83.75;99051.52;105480;1265;96794;-79
2024/03/27 04:59:05;;;;;;;8.50;6.90;;;;;;;6.95;83.62;99053.23;105718;1265;101346;-79
2024/03/27 05:01:50;;;;;;;12.90;6.90;;;;;;;6.94;83.64;99050.54;105779;1263;99143;-79
2024/03/27 05:04:36;;;;;;;10.80;7.10;;;;;;;6.94;83.65;99044.46;105595;1264;97957;-79
2024/03/27 05:07:22;;;;;;;10.90;7.30;;;;;;;6.96;83.41;99045.88;105753;1261;97902;-79
2024/03/27 05:10:08;;;;;;;16.00;8.50;;;;;;;6.97;83.49;99044.44;105739;1265;97770;-78
2024/03/27 05:12:53;;;;;;;10.60;7.60;;;;;;;6.97;83.50;99045.46;105724;1261;101461;-79
2024/03/27 05:15:40;;;;;;;9.60;6.80;;;;;;;6.99;83.52;99042.81;105671;1266;99223;-78
2024/03/27 05:18:25;;;;;;;11.50;7.30;;;;;;;7.00;83.65;99043.87;105605;1266;98718;-79
2024/03/27 05:21:13;;;;;;;11.80;7.70;;;;;;;7.00;83.52;99041.98;105707;1265;97978;-78
2024/03/27 05:23:58;;;;;;;13.20;7.80;;;;;;;6.99;83.62;99042.23;105852;1264;99550;-78
2024/03/27 05:26:47;;;;;;;15.90;9.10;;;;;;;7.00;83.52;99040.84;105685;1265;101350;-79
2024/03/27 05:29:32;;;;;;;12.50;7.40;;;;;;;6.99;83.40;99043.73;105797;1265;99242;-79
2024/03/27 05:32:18;;;;;;;13.60;7.90;;;;;;;7.00;83.51;99043.79;105683;1265;97791;-79
2024/03/27 05:35:04;;;;;;;9.80;6.60;;;;;;;7.03;83.55;99038.34;105556;1267;98131;-78
2024/03/27 05:37:49;;;;;;;10.80;6.70;;;;;;;7.05;83.39;99030.61;105614;1266;98413;-79
2024/03/27 05:40:35;;;;;;;10.90;6.70;;;;;;;7.09;83.54;99026.40;105679;1265;101388;-78
2024/03/27 05:43:20;;;;;;;13.10;8.40;;;;;;;7.12;83.46;99026.57;105648;1264;99234;-79
2024/03/27 05:46:05;;;;;;;13.50;6.90;;;;;;;7.13;83.32;99024.61;105627;1266;98461;-78
2024/03/27 05:48:54;;;;;;;11.90;7.00;;;;;;;7.16;83.23;99023.34;105634;1261;97977;-78
2024/03/27 05:51:40;;;;;;;10.60;6.60;;;;;;;7.19;83.01;99023.95;105710;1264;98621;-78
2024/03/27 05:54:25;;;;;;;11.40;6.50;;;;;;;7.23;82.94;99025.69;105677;1265;101220;-79
2024/03/27 05:57:11;;;;;;;9.30;6.60;;;;;;;7.26;82.68;99025.52;105736;1260;100962;-79
2024/03/27 05:59:56;;;;;;;13.20;6.90;;;;;;;7.29;82.74;99029.66;105555;1264;97939;-77
2024/03/27 06:02:42;;;;;;;13.90;8.50;;;;;;;7.33;82.84;99032.70;105607;1264;97865;-78
2024/03/27 06:05:27;;;;;;;15.70;8.70;;;;;;;7.37;82.99;99034.13;105603;1264;97855;-79
2024/03/27 06:08:13;;;;;;;10.10;6.90;;;;;;;7.42;82.98;99031.88;105590;1260;102011;-78
2024/03/27 06:10:58;;;;;;;10.20;6.20;;;;;;;7.46;82.45;99033.04;105661;1264;100488;-78
2024/03/27 06:13:44;;;;;;;10.10;7.00;;;;;;;7.51;82.34;99032.95;105557;1261;99190;-78
2024/03/27 06:16:31;;;;;;;9.40;6.00;;;;;;;7.58;82.15;99032.05;105667;1260;97957;-79
2024/03/27 06:19:16;;;;;;;12.20;7.80;;;;;;;7.66;81.86;99027.91;105471;1264;98450;-77
2024/03/27 06:22:02;;;;;;;11.20;6.60;;;;;;;7.74;81.57;99027.52;105327;1261;101351;-78
2024/03/27 06:24:49;;;;;;;10.40;6.70;;;;;;;7.81;81.50;99023.38;105305;1263;98946;-78
2024/03/27 06:27:35;;;;;;;11.00;6.10;;;;;;;7.89;81.00;99024.64;105258;1266;99134;-78
2024/03/27 06:30:20;;;;;;;10.60;6.30;;;;;;;7.94;80.27;99024.14;105219;1265;97952;-78
2024/03/27 06:33:06;;;;;;;10.00;6.40;;;;;;;7.99;80.47;99024.82;105272;1264;98402;-78
2024/03/27 06:35:52;;;;;;;9.40;6.60;;;;;;;8.07;80.02;99027.23;105154;1269;102654;-78
2024/03/27 06:38:41;;;;;;;8.10;6.70;;;;;;;8.16;80.12;99031.02;105170;1272;100370;-77
2024/03/27 06:41:27;;;;;;;10.40;6.30;;;;;;;8.24;79.94;99031.66;105173;1263;99023;-78
2024/03/27 06:44:12;;;;;;;11.30;6.40;;;;;;;8.35;80.09;99031.40;105111;1265;98152;-78
2024/03/27 06:46:58;;;;;;;8.00;6.50;;;;;;;8.45;79.45;99025.41;105126;1261;98582;-79
2024/03/27 06:49:43;;;;;;;8.80;6.40;;;;;;;8.53;78.96;99024.73;105141;1261;101346;-79
2024/03/27 06:52:28;;;;;;;11.00;7.50;;;;;;;8.63;78.62;99024.23;105146;1264;100634;-78
2024/03/27 06:55:14;;;;;;;15.70;6.40;;;;;;;8.72;78.51;99028.52;105048;1260;98986;-77
2024/03/27 06:57:59;;;;;;;12.20;6.80;;;;;;;8.82;78.29;99027.79;105215;1261;97979;-77
2024/03/27 07:00:45;;;;;;;8.80;5.60;;;;;;;8.93;77.98;99026.30;105150;1261;97912;-77
2024/03/27 07:03:33;;;;;;;8.10;5.50;;;;;;;9.03;77.29;99020.02;105144;1264;101681;-79
2024/03/27 07:06:18;;;;;;;9.80;6.10;;;;;;;9.13;77.37;99014.08;105520;1260;100291;-79
2024/03/27 07:09:04;;;;;;;15.70;5.80;;;;;;;9.24;77.15;99015.20;105467;1260;99063;-78
2024/03/27 07:11:50;;;;;;;7.50;6.10;;;;;;;9.36;76.70;99007.66;105562;1261;97962;-79
2024/03/27 07:14:35;;;;;;;11.30;6.20;;;;;;;9.45;75.96;99003.53;105414;1264;98541;-79
2024/03/27 07:17:21;;;;;;;8.40;6.20;;;;;;;9.49;75.11;99001.65;105572;1264;102122;-77
2024/03/27 07:20:08;;;;;;;8.90;6.10;;;;;;;9.52;74.86;99000.91;105184;1273;99291;-77
2024/03/27 07:22:54;;;;;;;10.30;6.40;;;;;;;9.57;74.60;98995.90;105281;1261;98598;-79
2024/03/27 07:25:39;;;;;;;9.60;6.20;;;;;;;9.62;75.13;98999.07;105159;1264;98128;-78
2024/03/27 07:28:24;;;;;;;12.90;7.00;;;;;;;9.66;74.46;98994.95;105195;1267;98394;-78
2024/03/27 07:31:10;;;;;;;7.50;5.30;;;;;;;9.68;74.06;98997.61;105146;1264;103055;-78
2024/03/27 07:33:55;;;;;;;7.50;5.20;;;;;;;9.76;74.09;98997.34;105157;1261;99125;-78
2024/03/27 07:36:41;;;;;;;6.00;4.90;;;;;;;9.87;74.07;99001.51;105424;1261;100108;-78
2024/03/27 07:39:27;;;;;;;11.10;5.60;;;;;;;9.99;74.06;99001.26;105406;1264;97965;-78
2024/03/27 07:42:12;;;;;;;8.00;5.30;;;;;;;10.09;73.00;98998.50;105418;1260;97958;-78
2024/03/27 07:44:58;;;;;;;9.50;5.80;;;;;;;10.15;72.60;98997.18;105075;1264;101377;-76
2024/03/27 07:47:44;;;;;;;7.90;5.70;;;;;;;10.20;72.22;98991.88;105090;1263;100516;-76
2024/03/27 07:50:29;;;;;;;9.30;5.40;;;;;;;10.26;72.23;98985.64;105119;1263;98004;-77
2024/03/27 07:53:15;;;;;;;10.00;5.50;;;;;;;10.31;72.34;98979.69;104995;1264;97898;-78
2024/03/27 07:56:03;;;;;;;9.30;5.00;;;;;;;10.37;71.65;98976.20;105091;1260;98628;-76
2024/03/27 07:58:48;;;;;;;9.40;5.50;;;;;;;10.42;71.53;98976.64;105472;1264;101986;-79
2024/03/27 08:01:33;;;;;;;11.10;6.20;;;;;;;10.48;71.33;98974.05;105649;1264;100351;-79
2024/03/27 08:04:19;;;;;;;7.70;4.50;;;;;;;10.54;71.18;98972.73;105459;1264;97989;-78
2024/03/27 08:07:05;;;;;;;10.50;5.20;;;;;;;10.60;71.19;98970.75;105016;1261;97884;-78
2024/03/27 08:09:51;;;;;;;7.30;5.20;;;;;;;10.66;70.54;98973.77;104898;1271;98403;-77
2024/03/27 08:12:36;;;;;;;7.80;5.00;;;;;;;10.72;70.47;98974.62;105074;1264;101899;-77
2024/03/27 08:15:22;;;;;;;8.10;4.70;;;;;;;10.79;70.78;98978.08;104925;1264;99115;-78
2024/03/27 08:18:07;;;;;;;6.80;4.80;;;;;;;10.87;70.06;98977.42;104948;1264;99021;-77
2024/03/27 08:20:55;;;;;;;11.40;6.90;;;;;;;10.95;70.12;98973.95;105064;1264;97966;-76
2024/03/27 08:23:40;;;;;;;10.40;4.70;;;;;;;11.03;69.89;98971.48;105291;1260;99018;-77
2024/03/27 08:26:25;;;;;;;7.50;4.40;;;;;;;11.10;69.67;98970.70;105092;1261;102601;-77
2024/03/27 08:29:11;;;;;;;7.00;4.60;;;;;;;11.16;69.74;98969.82;105062;1264;100047;-77
2024/03/27 08:32:00;;;;;;;11.60;5.40;;;;;;;11.22;69.45;98968.64;104973;1261;99146;-78
2024/03/27 08:34:45;;;;;;;7.60;4.60;;;;;;;11.32;69.04;98964.17;104983;1261;97968;-78
2024/03/27 08:37:31;;;;;;;5.20;3.80;;;;;;;11.39;68.06;98965.55;104938;1264;98474;-78
2024/03/27 08:40:16;;;;;;;6.90;4.50;;;;;;;11.46;68.06;98964.27;105474;1261;101382;-78
2024/03/27 08:43:02;;;;;;;7.00;4.30;;;;;;;11.55;68.16;98961.13;105804;1260;99123;-79
2024/03/27 08:45:48;;;;;;;8.40;4.80;;;;;;;11.64;68.06;98959.38;105896;1263;98992;-79
2024/03/27 08:48:34;;;;;;;8.10;4.20;;;;;;;11.72;67.46;98963.38;105497;1261;99084;-78
2024/03/27 08:51:19;;;;;;;8.60;4.30;;;;;;;11.78;67.28;98962.25;105498;1263;98467;-77
2024/03/27 08:54:05;;;;;;;7.00;3.90;;;;;;;11.85;67.44;98956.17;105455;1265;102614;-78
2024/03/27 08:56:50;;;;;;;6.40;4.20;;;;;;;11.94;67.54;98956.80;105394;1264;99267;-77
2024/03/27 08:59:36;;;;;;;9.10;4.20;;;;;;;12.03;67.37;98953.77;104989;1263;98204;-78
2024/03/27 09:02:21;;;;;;;7.70;4.10;;;;;;;12.10;66.80;98952.98;105077;1264;98076;-77
2024/03/27 09:05:07;;;;;;;6.40;4.10;;;;;;;12.17;66.45;98953.29;104775;1261;98347;-76
2024/03/27 09:07:54;;;;;;;7.40;4.30;;;;;;;12.24;66.34;98954.88;105102;1260;101381;-78
2024/03/27 09:10:39;;;;;;;11.00;4.60;;;;;;;12.28;65.65;98952.23;105042;1264;100487;-77
2024/03/27 09:13:25;;;;;;;13.40;4.30;;;;;;;12.31;65.85;98953.16;104929;1261;98029;-78
2024/03/27 09:16:11;;;;;;;6.70;4.10;;;;;;;12.40;65.64;98949.06;105367;1260;98015;-78
2024/03/27 09:18:56;;;;;;;16.00;5.00;;;;;;;12.48;65.31;98950.85;105413;1261;97965;-78
2024/03/27 09:21:41;;;;;;;9.90;5.40;;;;;;;12.55;65.08;98957.27;105599;1267;103222;-79
2024/03/27 09:24:28;;;;;;;5.80;4.30;;;;;;;12.62;65.66;98958.15;105430;1260;99472;-79
2024/03/27 09:27:14;;;;;;;6.00;3.80;;;;;;;12.68;64.69;98955.52;105139;1262;98086;-78
2024/03/27 09:29:59;;;;;;;9.50;4.30;;;;;;;12.74;64.17;98956.19;105373;1261;97971;-77
2024/03/27 09:32:45;;;;;;;6.00;4.00;;;;;;;12.79;63.83;98954.73;105096;1263;98474;-78
2024/03/27 09:35:33;;;;;;;7.50;4.40;;;;;;;12.86;63.64;98955.33;105156;1260;102021;-78
2024/03/27 09:38:18;;;;;;;8.30;4.50;;;;;;;12.93;63.66;98954.55;105179;1264;99183;-77
2024/03/27 09:41:04;;;;;;;7.00;4.50;;;;;;;12.99;63.33;98949.33;104972;1264;98383;-76
2024/03/27 09:43:53;;;;;;;7.00;4.60;;;;;;;13.06;63.37;98947.06;105193;1261;97975;-77
2024/03/27 09:46:39;;;;;;;9.20;4.40;;;;;;;13.13;63.44;98949.34;105015;1260;97996;-79
2024/03/27 09:49:24;;;;;;;6.50;4.30;;;;;;;13.22;63.86;98949.17;106063;1264;102068;-80
2024/03/27 09:52:11;;;;;;;10.20;5.00;;;;;;;13.34;63.75;98946.45;105784;1260;99084;-79
2024/03/27 09:54:57;;;;;;;9.60;4.70;;;;;;;13.42;63.45;98945.58;105576;1261;99053;-79
2024/03/27 09:57:42;;;;;;;9.00;4.10;;;;;;;13.49;63.39;98949.89;105119;1264;99252;-78
2024/03/27 10:00:28;;;;;;;9.80;4.60;;;;;;;13.55;63.06;98948.41;105090;1264;98543;-76
2024/03/27 10:03:14;;;;;;;8.40;4.50;;;;;;;13.60;63.06;98948.11;105974;1260;102595;-80
2024/03/27 10:06:00;;;;;;;9.00;5.10;;;;;;;13.63;62.68;98945.68;105946;1263;99796;-79
2024/03/27 10:08:46;;;;;;;11.80;4.90;;;;;;;13.65;62.57;98946.78;105150;1264;98166;-78
2024/03/27 10:11:32;;;;;;;8.30;4.30;;;;;;;13.67;62.22;98943.54;105251;1264;97920;-80
2024/03/27 10:14:17;;;;;;;6.40;4.30;;;;;;;13.73;62.34;98940.95;105154;1264;98427;-78
2024/03/27 10:17:03;;;;;;;7.40;4.30;;;;;;;13.79;62.28;98940.60;105100;1263;101449;-77
2024/03/27 10:19:49;;;;;;;13.70;4.30;;;;;;;13.84;62.06;98945.58;105114;1261;100889;-78
2024/03/27 10:22:38;;;;;;;9.70;4.40;;;;;;;13.88;61.86;98947.93;104973;1264;99020;-77
2024/03/27 10:25:25;;;;;;;9.50;4.10;;;;;;;13.96;62.08;98945.52;104893;1265;97955;-78
2024/03/27 10:28:11;;;;;;;8.60;3.90;;;;;;;14.03;62.39;98943.41;104963;1260;99311;-77
2024/03/27 10:30:57;;;;;;;9.40;4.00;;;;;;;14.10;61.42;98943.66;104910;1264;102589;-77
2024/03/27 10:33:42;;;;;;;8.80;3.90;;;;;;;14.16;61.54;98944.61;105003;1260;100059;-77
2024/03/27 10:36:29;;;;;;;14.50;4.60;;;;;;;14.23;61.37;98942.43;105014;1260;98977;-78
2024/03/27 10:39:17;;;;;;;10.30;4.50;;;;;;;14.29;61.03;98940.27;105187;1264;97978;-78
2024/03/27 10:42:03;;;;;;;5.90;3.90;;;;;;;14.34;60.89;98934.09;105241;1261;98495;-79
2024/03/27 10:44:57;;;;;;;10.30;4.80;;;;;;;14.41;61.05;98923.87;105236;1261;103051;-77
2024/03/27 10:47:43;;;;;;;9.50;4.30;;;;;;;14.48;61.21;98918.67;105290;1264;99292;-77
2024/03/27 10:50:31;;;;;;;8.10;4.10;;;;;;;14.56;60.89;98914.41;105340;1260;97974;-79
2024/03/27 10:53:17;;;;;;;9.40;3.70;;;;;;;14.64;60.50;98909.26;105687;1264;98056;-79
2024/03/27 10:56:03;;;;;;;7.00;3.90;;;;;;;14.73;60.54;98911.45;105214;1261;98625;-78
2024/03/27 10:58:50;;;;;;;8.10;4.10;;;;;;;14.81;59.78;98916.55;105258;1261;101336;-78
2024/03/27 11:01:39;;;;;;;11.70;3.80;;;;;;;14.87;59.93;98911.97;105306;1261;99449;-78
2024/03/27 11:04:27;;;;;;;7.90;3.70;;;;;;;14.94;60.11;98908.60;105207;1260;99056;-79
2024/03/27 11:07:14;;;;;;;7.60;4.10;;;;;;;15.00;59.40;98905.52;105494;1264;98746;-79
2024/03/27 11:09:59;;;;;;;5.50;3.60;;;;;;;15.04;58.04;98901.61;106216;1261;97964;-81
2024/03/27 11:12:45;;;;;;;5.40;3.40;;;;;;;15.09;57.99;98902.26;106576;1260;101352;-80
2024/03/27 11:15:32;;;;;;;9.20;3.80;;;;;;;15.16;57.60;98901.77;106594;1261;99106;-80
2024/03/27 11:18:18;;;;;;;6.80;3.70;;;;;;;15.21;57.40;98894.05;106530;1260;98929;-81
2024/03/27 11:21:06;;;;;;;7.30;3.40;;;;;;;15.27;57.53;98890.70;105714;1261;97902;-81
2024/03/27 11:23:52;;;;;;;14.70;3.80;;;;;;;15.36;57.56;98884.07;106582;1261;97768;-80
2024/03/27 11:26:37;;;;;;;9.40;4.20;;;;;;;15.45;57.22;98886.21;105725;1261;101661;-77
2024/03/27 11:29:24;;;;;;;10.60;4.10;;;;;;;15.53;56.56;98886.64;106074;1260;101527;-80
2024/03/27 11:32:12;;;;;;;4.20;2.80;;;;;;;15.59;56.39;98881.61;106026;1259;97907;-79
2024/03/27 11:34:58;;;;;;;8.50;3.40;;;;;;;15.65;56.51;98873.29;105450;1263;97918;-79
2024/03/27 11:37:43;;;;;;;5.00;3.50;;;;;;;15.73;56.51;98875.54;105345;1264;99837;-77
2024/03/27 11:40:29;;;;;;;9.40;3.90;;;;;;;15.80;56.37;98874.88;105252;1261;101344;-77
2024/03/27 11:43:14;;;;;;;13.00;3.70;;;;;;;15.86;56.15;98873.89;105841;1260;99421;-78
2024/03/27 11:46:00;;;;;;;7.00;3.70;;;;;;;15.90;55.76;98876.98;105461;1264;98982;-77
2024/03/27 11:48:45;;;;;;;7.60;3.40;;;;;;;15.96;55.43;98869.17;105396;1262;98032;-79
2024/03/27 11:51:31;;;;;;;6.40;3.60;;;;;;;16.02;55.55;98867.48;105394;1259;98518;-78
2024/03/27 11:54:16;;;;;;;10.10;3.60;;;;;;;16.08;55.10;98861.24;105448;1259;102091;-78
2024/03/27 11:57:01;;;;;;;9.20;4.40;;;;;;;16.13;55.15;98851.80;105313;1259;99173;-79
2024/03/27 11:59:49;;;;;;;11.00;3.50;;;;;;;16.18;55.05;98853.55;105381;1260;98031;-78
2024/03/27 12:02:36;;;;;;;6.20;2.90;;;;;;;16.23;55.74;98856.80;105105;1263;97969;-78
2024/03/27 12:05:22;;;;;;;8.60;2.90;;;;;;;16.33;56.08;98854.79;105052;1259;98399;-78
2024/03/27 12:08:07;;;;;;;5.80;3.50;;;;;;;16.40;55.32;98852.86;105279;1259;103049;-78
2024/03/27 12:10:53;;;;;;;8.00;3.70;;;;;;;16.47;55.14;98853.58;105662;1259;99128;-77
2024/03/27 12:13:38;;;;;;;7.00;3.60;;;;;;;16.53;55.16;98847.84;105790;1262;97935;-79
2024/03/27 12:16:24;;;;;;;4.60;2.80;;;;;;;16.57;55.19;98844.23;105794;1260;98084;-79
2024/03/27 12:19:10;;;;;;;7.70;3.50;;;;;;;16.62;55.19;98841.70;105777;1261;98480;-80
2024/03/27 12:21:56;;;;;;;7.40;3.00;;;;;;;16.66;54.96;98843.54;106138;1259;102111;-79
2024/03/27 12:24:41;;;;;;;6.00;3.30;;;;;;;16.70;54.49;98840.40;106308;1259;99113;-80
2024/03/27 12:27:32;;;;;;;5.80;3.10;;;;;;;16.73;54.02;98837.42;106371;1259;97911;-79
2024/03/27 12:30:18;;;;;;;4.90;3.00;;;;;;;16.77;54.08;98833.91;106717;1260;98038;-79
2024/03/27 12:33:04;;;;;;;8.20;3.30;;;;;;;16.80;54.16;98827.16;106238;1259;98680;-79
2024/03/27 12:35:50;;;;;;;8.60;3.00;;;;;;;16.87;54.58;98824.95;106399;1259;101307;-80
2024/03/27 12:38:35;;;;;;;6.70;2.90;;;;;;;16.95;54.73;98827.38;106306;1263;99112;-79
2024/03/27 12:41:20;;;;;;;5.20;3.30;;;;;;;17.03;54.28;98827.81;106177;1259;98743;-79
2024/03/27 12:44:06;;;;;;;5.60;3.00;;;;;;;17.08;53.96;98821.85;106396;1263;98017;-80
2024/03/27 12:46:51;;;;;;;6.60;2.90;;;;;;;17.10;53.69;98818.88;106337;1262;97863;-79